Terminal Aerodrome Forecast
Issued by NWS St Louis, MO

Home | Current Version | Previous Version | Text Only | Print | Product List | Glossary On
Versions: 1 2 3 4 5 6 7 8 9 10 11 12 13 14 15 16 17 18
649
FTUS43 KLSX 061123
TAFCOU
TAF
KCOU 061123Z 0612/0712 32006KT 1SM BR OVC003
      TEMPO 0612/0615 1/4SM FG VV001
     FM061500 33011KT 4SM BR BKN008
     FM061600 32012KT P6SM SCT025
     FM062300 28007KT P6SM FEW250=

USA.gov is the U.S. government's official web portal to all federal, state and local government web resources and services.